Time;durP1;ratioP1;P1;durP2;ratioP2;P2;SDS_P1;SDS_P2;PMS_P1;PMS_P2;Temp;Humidity;BMP_temperature;BMP_pressure;BME280_temperature;BME280_humidity;BME280_pressure;Samples;Min_cycle;Max_cycle;Signal;HPM_P1;HPM_P2
2023/04/06 00:01:01;;;;;;;3.70;2.50;;;;;;;4.59;46.36;97366.81;4857879;28;20188;-78
2023/04/06 00:03:27;;;;;;;3.47;2.50;;;;;;;4.55;47.48;97363.84;4855627;28;20333;-78
2023/04/06 00:05:52;;;;;;;3.35;2.42;;;;;;;4.55;46.28;97355.34;4850334;29;20700;-78
2023/04/06 00:08:18;;;;;;;4.35;2.45;;;;;;;4.34;46.89;97354.56;4896871;28;20204;-78
2023/04/06 00:10:43;;;;;;;3.83;2.80;;;;;;;4.36;47.54;97351.78;4873960;28;20284;-78
2023/04/06 00:13:08;;;;;;;4.15;2.17;;;;;;;4.31;46.85;97350.59;4833589;28;20111;-78
2023/04/06 00:15:34;;;;;;;4.72;2.53;;;;;;;4.29;48.02;97347.41;4836092;29;20276;-78
2023/04/06 00:18:00;;;;;;;4.82;2.72;;;;;;;4.19;48.09;97344.44;4866871;28;20271;-78
2023/04/06 00:20:25;;;;;;;4.68;2.33;;;;;;;4.27;48.03;97348.63;4832211;28;20245;-78
2023/04/06 00:22:51;;;;;;;2.85;2.25;;;;;;;4.27;47.76;97344.25;4825476;28;20671;-78
2023/04/06 00:25:16;;;;;;;6.72;3.03;;;;;;;4.11;47.92;97340.31;4869415;28;20704;-78
2023/04/06 00:27:42;;;;;;;5.78;2.20;;;;;;;4.15;47.83;97343.28;4885689;28;20121;-78
2023/04/06 00:30:08;;;;;;;5.38;2.60;;;;;;;4.11;48.05;97331.75;4909833;28;20505;-78
2023/04/06 00:32:36;;;;;;;4.80;2.08;;;;;;;4.17;47.83;97343.88;4816598;28;20191;-78
2023/04/06 00:35:03;;;;;;;3.03;2.33;;;;;;;4.05;48.57;97330.78;4814519;28;20259;-78
2023/04/06 00:37:28;;;;;;;4.22;2.88;;;;;;;4.07;47.71;97336.53;4862211;28;20321;-78
2023/04/06 00:39:53;;;;;;;3.25;2.38;;;;;;;4.00;48.11;97325.44;4842590;28;20286;-78
2023/04/06 00:42:25;;;;;;;3.55;2.30;;;;;;;4.02;47.87;97335.53;4888744;28;20317;-78
2023/04/06 00:44:54;;;;;;;2.90;1.85;;;;;;;4.02;48.42;97326.00;4882931;28;20126;-78
2023/04/06 00:47:21;;;;;;;5.97;2.70;;;;;;;4.01;48.32;97326.22;4837354;28;20182;-78
2023/04/06 00:49:46;;;;;;;3.55;2.25;;;;;;;3.93;47.70;97316.91;4862504;28;20171;-78
2023/04/06 00:52:11;;;;;;;3.60;2.47;;;;;;;3.98;47.96;97311.97;4862676;28;20251;-78
2023/04/06 00:54:37;;;;;;;3.60;2.40;;;;;;;4.06;48.07;97316.09;4858624;28;20179;-78
2023/04/06 00:57:05;;;;;;;3.95;2.42;;;;;;;4.10;47.53;97318.09;4879428;28;20192;-78
2023/04/06 00:59:31;;;;;;;5.45;2.72;;;;;;;4.11;47.64;97313.72;4849352;29;20286;-78
2023/04/06 01:01:56;;;;;;;4.32;2.50;;;;;;;4.15;47.26;97317.50;4883327;23;21553;-82
2023/04/06 01:04:24;;;;;;;3.63;2.20;;;;;;;4.10;47.51;97312.94;4894230;28;20666;-81
2023/04/06 01:06:50;;;;;;;3.53;2.13;;;;;;;4.09;47.28;97311.34;4895201;28;20163;-81
2023/04/06 01:09:16;;;;;;;4.22;2.45;;;;;;;4.06;47.97;97298.06;4895009;28;20240;-82
2023/04/06 01:11:42;;;;;;;3.58;2.08;;;;;;;4.00;47.65;97306.59;4897297;28;20268;-81
2023/04/06 01:14:08;;;;;;;4.75;2.33;;;;;;;3.89;48.11;97295.91;4908857;28;20258;-81
2023/04/06 01:16:33;;;;;;;3.35;2.15;;;;;;;3.92;47.70;97300.66;4927331;28;20395;-82
2023/04/06 01:18:59;;;;;;;5.43;2.47;;;;;;;3.93;47.67;97304.03;4896461;28;20285;-81
2023/04/06 01:21:25;;;;;;;5.10;2.63;;;;;;;3.85;47.55;97297.28;4912403;28;20646;-82
2023/04/06 01:24:06;;;;;;;3.10;2.08;;;;;;;3.89;47.58;97306.22;4913103;28;20496;-81
2023/04/06 01:26:32;;;;;;;3.30;2.25;;;;;;;3.80;46.95;97288.56;4911196;28;20103;-81
2023/04/06 01:28:57;;;;;;;3.55;2.33;;;;;;;3.87;47.75;97302.25;4896925;28;20313;-82
2023/04/06 01:31:23;;;;;;;3.60;2.53;;;;;;;3.90;47.65;97300.06;4895637;28;20375;-81
2023/04/06 01:33:49;;;;;;;5.65;2.88;;;;;;;3.73;48.48;97289.34;4927970;28;20210;-81
2023/04/06 01:36:14;;;;;;;5.20;2.53;;;;;;;3.62;49.06;97278.88;4914548;28;20336;-82
2023/04/06 01:38:41;;;;;;;4.70;2.92;;;;;;;3.70;48.65;97281.22;4931385;28;20183;-82
2023/04/06 01:41:07;;;;;;;4.32;2.33;;;;;;;3.77;47.63;97271.75;4914692;28;20465;-82
2023/04/06 01:43:35;;;;;;;3.63;2.60;;;;;;;3.79;48.87;97286.97;4930518;28;20506;-82
2023/04/06 01:46:01;;;;;;;4.95;2.90;;;;;;;3.70;48.76;97276.06;4932763;28;20245;-81
2023/04/06 01:48:27;;;;;;;4.85;3.40;;;;;;;3.69;49.13;97283.03;4916325;28;20213;-82
2023/04/06 01:50:53;;;;;;;4.22;2.47;;;;;;;3.51;49.57;97273.31;4929279;28;20194;-82
2023/04/06 01:53:18;;;;;;;4.40;2.55;;;;;;;3.66;49.00;97287.78;4896734;28;20249;-81
2023/04/06 01:55:44;;;;;;;4.10;2.40;;;;;;;3.69;48.69;97277.09;4931187;28;20277;-82
2023/04/06 01:58:10;;;;;;;4.45;2.50;;;;;;;3.69;48.55;97274.50;4900206;28;20107;-82
2023/04/06 02:00:35;;;;;;;4.78;2.40;;;;;;;3.61;48.89;97272.13;4933236;28;20103;-80
2023/04/06 02:03:01;;;;;;;3.30;2.25;;;;;;;3.62;49.63;97286.59;4904196;28;20277;-82
2023/04/06 02:05:26;;;;;;;3.67;2.33;;;;;;;3.55;50.36;97286.59;4914081;28;20213;-82
2023/04/06 02:07:52;;;;;;;4.13;2.20;;;;;;;3.42;50.81;97271.91;4879048;28;20179;-82
2023/04/06 02:10:17;;;;;;;4.65;2.50;;;;;;;3.52;50.76;97280.03;4928006;28;20168;-82
2023/04/06 02:12:43;;;;;;;3.65;2.55;;;;;;;3.40;50.93;97267.94;4909786;28;20196;-82
2023/04/06 02:15:09;;;;;;;4.25;2.38;;;;;;;3.49;51.17;97274.47;4912811;28;20213;-83
2023/04/06 02:17:34;;;;;;;4.68;3.00;;;;;;;3.56;49.95;97285.56;4911086;28;20080;-83
2023/04/06 02:20:00;;;;;;;3.97;2.50;;;;;;;3.49;49.83;97274.47;4910609;28;20698;-82
2023/04/06 02:22:25;;;;;;;4.10;2.40;;;;;;;3.39;49.84;97264.56;4926868;28;20180;-83
2023/04/06 02:24:50;;;;;;;4.05;2.53;;;;;;;3.47;49.82;97273.91;4905585;28;20193;-82
2023/04/06 02:27:16;;;;;;;4.10;2.45;;;;;;;3.51;50.19;97278.47;4880184;28;20186;-83
2023/04/06 02:29:41;;;;;;;3.58;2.55;;;;;;;3.41;50.44;97270.34;4925805;28;20205;-83
2023/04/06 02:32:07;;;;;;;4.00;2.40;;;;;;;3.38;50.27;97265.56;4908610;28;20626;-82
2023/04/06 02:34:32;;;;;;;4.90;2.90;;;;;;;3.48;49.64;97278.84;4911976;28;20182;-82
2023/04/06 02:36:58;;;;;;;4.05;2.83;;;;;;;3.47;50.02;97274.69;4879478;28;20648;-83
2023/04/06 02:39:23;;;;;;;5.18;2.65;;;;;;;3.48;49.96;97272.88;4880414;28;20118;-83
2023/04/06 02:41:48;;;;;;;3.72;2.40;;;;;;;3.46;49.81;97262.00;4900099;28;20579;-82
2023/04/06 02:44:14;;;;;;;4.60;2.78;;;;;;;3.45;49.21;97260.44;4896399;28;20110;-83
2023/04/06 02:46:39;;;;;;;4.95;2.92;;;;;;;3.48;49.35;97262.59;4908692;28;20291;-82
2023/04/06 02:49:05;;;;;;;3.13;2.60;;;;;;;3.56;48.47;97258.06;4911276;28;20252;-83
2023/04/06 02:51:30;;;;;;;5.30;3.00;;;;;;;3.48;49.21;97263.41;4910708;28;20223;-82
2023/04/06 02:53:56;;;;;;;3.83;2.78;;;;;;;3.53;48.86;97271.34;4894094;28;20694;-82
2023/04/06 02:56:21;;;;;;;4.75;2.80;;;;;;;3.39;48.86;97249.13;4911631;28;20300;-83
2023/04/06 02:58:47;;;;;;;4.30;2.55;;;;;;;3.36;49.02;97241.81;4895295;28;20131;-82
2023/04/06 03:01:12;;;;;;;4.32;2.58;;;;;;;3.53;49.20;97260.22;4897391;28;20100;-82
2023/04/06 03:03:38;;;;;;;3.58;2.42;;;;;;;3.51;49.03;97255.28;4928010;28;20311;-83
2023/04/06 03:06:03;;;;;;;3.63;2.40;;;;;;;3.61;48.48;97262.59;4897746;28;20193;-83
2023/04/06 03:08:29;;;;;;;4.30;2.40;;;;;;;3.55;49.64;97253.91;4925900;28;20292;-83
2023/04/06 03:10:54;;;;;;;4.60;2.60;;;;;;;3.56;49.07;97258.06;4928568;28;20196;-82
2023/04/06 03:13:20;;;;;;;4.35;2.50;;;;;;;3.66;48.07;97256.88;4894652;28;20208;-83
2023/04/06 03:15:46;;;;;;;4.07;2.85;;;;;;;3.60;48.29;97234.47;4927179;28;20046;-82
2023/04/06 03:18:11;;;;;;;3.83;2.42;;;;;;;3.49;48.92;97254.69;4913139;28;20283;-82
2023/04/06 03:20:36;;;;;;;4.35;2.70;;;;;;;3.59;49.27;97256.88;4910733;28;20205;-81
2023/04/06 03:23:02;;;;;;;5.15;2.42;;;;;;;3.63;48.97;97258.03;4927853;28;20212;-82
2023/04/06 03:25:27;;;;;;;3.65;2.65;;;;;;;3.44;48.12;97239.03;4904326;28;20719;-83
2023/04/06 03:27:52;;;;;;;3.30;2.05;;;;;;;3.53;48.64;97255.88;4906506;28;20077;-82
2023/04/06 03:30:18;;;;;;;5.57;2.53;;;;;;;3.41;49.26;97256.66;4893244;28;20287;-82
2023/04/06 03:32:44;;;;;;;4.50;2.28;;;;;;;3.47;48.82;97259.22;4923553;28;20253;-82
2023/04/06 03:35:10;;;;;;;4.07;2.10;;;;;;;3.50;48.98;97251.13;4925662;28;20254;-83
2023/04/06 03:37:35;;;;;;;4.53;2.67;;;;;;;3.54;49.35;97261.81;4930167;28;20260;-82
2023/04/06 03:40:01;;;;;;;4.13;2.47;;;;;;;3.64;48.65;97271.72;4910230;28;20163;-82
2023/04/06 03:42:26;;;;;;;5.30;2.13;;;;;;;3.65;48.93;97263.00;4926656;28;20217;-80
2023/04/06 03:44:52;;;;;;;3.95;2.53;;;;;;;3.47;48.18;97258.44;4895269;28;20197;-82
2023/04/06 03:47:17;;;;;;;4.50;2.80;;;;;;;3.63;47.36;97257.25;4925608;28;20298;-81
2023/04/06 03:49:42;;;;;;;4.53;2.90;;;;;;;3.77;45.41;97255.47;4912192;28;20280;-82
2023/04/06 03:52:08;;;;;;;4.32;2.30;;;;;;;3.98;45.31;97273.31;4895074;28;20205;-81
2023/04/06 03:54:33;;;;;;;4.55;2.85;;;;;;;4.08;45.94;97262.63;4913705;28;20262;-82
2023/04/06 03:57:00;;;;;;;4.72;2.63;;;;;;;4.14;47.11;97266.94;4930442;28;20252;-80
2023/04/06 03:59:25;;;;;;;4.53;2.80;;;;;;;4.14;46.96;97261.78;4912802;28;20640;-81
2023/04/06 04:01:50;;;;;;;5.07;3.08;;;;;;;4.27;45.97;97266.16;4896716;28;20157;-82
2023/04/06 04:04:16;;;;;;;4.75;2.75;;;;;;;4.11;47.37;97287.97;4897293;28;20190;-81
2023/04/06 04:06:41;;;;;;;5.88;3.13;;;;;;;3.91;44.90;97268.16;4911850;28;20676;-81
2023/04/06 04:09:07;;;;;;;4.18;2.33;;;;;;;4.05;43.66;97283.63;4928414;28;20226;-81
2023/04/06 04:11:32;;;;;;;4.65;2.67;;;;;;;4.27;44.41;97286.78;4910783;28;20194;-81
2023/04/06 04:13:58;;;;;;;4.18;2.22;;;;;;;4.24;44.87;97285.38;4914702;28;20359;-81
2023/04/06 04:16:23;;;;;;;3.95;2.20;;;;;;;4.18;43.64;97291.34;4896843;28;20081;-81
2023/04/06 04:18:48;;;;;;;4.25;2.65;;;;;;;4.36;45.30;97290.72;4897759;28;20211;-81
2023/04/06 04:21:14;;;;;;;6.05;3.05;;;;;;;4.45;45.88;97289.47;4926487;28;20253;-81
2023/04/06 04:23:39;;;;;;;4.25;2.38;;;;;;;4.40;46.33;97291.88;4927969;28;20178;-82
2023/04/06 04:26:05;;;;;;;3.33;2.50;;;;;;;4.30;46.69;97296.66;4909081;28;20034;-81
2023/04/06 04:28:50;;;;;;;3.65;2.63;;;;;;;4.13;46.53;97297.09;4906806;28;20253;-81
2023/04/06 04:31:18;;;;;;;5.93;2.80;;;;;;;4.11;44.15;97299.06;4925999;28;20248;-80
2023/04/06 04:33:43;;;;;;;4.82;2.50;;;;;;;4.18;43.93;97287.94;4907500;28;20406;-81
2023/04/06 04:36:10;;;;;;;5.45;3.00;;;;;;;4.29;43.70;97295.88;4910031;28;20332;-81
2023/04/06 04:38:35;;;;;;;4.93;2.90;;;;;;;4.38;42.90;97298.25;4908910;28;20331;-79
2023/04/06 04:41:01;;;;;;;4.85;2.88;;;;;;;4.44;42.40;97284.56;4930736;28;20483;-80
2023/04/06 04:43:26;;;;;;;6.57;3.10;;;;;;;4.65;42.46;97294.59;4908196;28;20221;-81
2023/04/06 04:45:52;;;;;;;5.07;2.67;;;;;;;4.76;41.85;97295.75;4907495;28;20398;-80
2023/04/06 04:48:17;;;;;;;5.25;2.92;;;;;;;4.77;41.88;97287.03;4892409;28;20240;-80
2023/04/06 04:50:43;;;;;;;4.43;2.80;;;;;;;4.90;41.67;97301.69;4877587;28;20158;-80
2023/04/06 04:53:08;;;;;;;4.35;2.80;;;;;;;5.01;41.76;97293.28;4923007;28;20389;-80
2023/04/06 04:55:34;;;;;;;5.50;3.13;;;;;;;5.10;41.52;97298.22;4905478;28;20441;-80
2023/04/06 04:57:59;;;;;;;6.15;3.08;;;;;;;5.12;41.28;97296.22;4889251;28;20202;-80
2023/04/06 05:00:25;;;;;;;5.38;3.20;;;;;;;5.14;41.30;97289.84;4911708;28;20253;-80
2023/04/06 05:02:51;;;;;;;7.28;3.63;;;;;;;5.32;40.63;97293.53;4908313;28;20409;-80
2023/04/06 05:05:16;;;;;;;4.55;2.78;;;;;;;5.41;40.87;97290.47;4893528;28;20288;-80
2023/04/06 05:07:41;;;;;;;6.00;3.15;;;;;;;5.48;42.74;97295.59;4910043;28;20295;-80
2023/04/06 05:10:07;;;;;;;3.97;2.35;;;;;;;5.40;42.83;97291.50;4910267;28;20141;-80
2023/04/06 05:12:33;;;;;;;6.22;2.90;;;;;;;5.07;44.27;97295.06;4924897;28;20193;-80
2023/04/06 05:14:58;;;;;;;4.13;2.70;;;;;;;4.96;44.66;97293.09;4925126;28;20199;-80
2023/04/06 05:17:24;;;;;;;4.82;2.97;;;;;;;4.96;44.51;97294.91;4877881;28;20218;-81
2023/04/06 05:19:49;;;;;;;4.97;2.70;;;;;;;4.77;44.32;97291.41;4910034;28;20189;-81
2023/04/06 05:22:17;;;;;;;4.22;2.83;;;;;;;4.82;45.18;97289.78;4924814;28;20632;-81
2023/04/06 05:24:43;;;;;;;4.10;2.65;;;;;;;4.71;45.96;97295.56;4909335;28;20652;-81
2023/04/06 05:27:08;;;;;;;6.32;2.97;;;;;;;4.64;45.35;97297.38;4893884;28;20276;-80
2023/04/06 05:29:34;;;;;;;5.40;3.22;;;;;;;4.82;45.81;97299.31;4908095;28;20280;-81
2023/04/06 05:31:59;;;;;;;6.18;2.97;;;;;;;4.93;44.86;97306.41;4908188;28;20205;-81
2023/04/06 05:34:25;;;;;;;7.15;3.42;;;;;;;4.95;45.89;97294.13;4907774;28;20522;-80
2023/04/06 05:36:50;;;;;;;5.22;2.67;;;;;;;4.92;45.59;97294.53;4924217;28;20205;-80
2023/04/06 05:39:16;;;;;;;5.50;3.30;;;;;;;5.11;45.19;97300.59;4925250;28;20253;-80
2023/04/06 05:41:41;;;;;;;5.00;2.85;;;;;;;5.14;45.02;97300.19;4923878;28;20260;-80
2023/04/06 05:44:07;;;;;;;3.85;3.03;;;;;;;5.10;46.55;97293.03;4910600;28;20244;-79
2023/04/06 05:46:32;;;;;;;5.75;3.03;;;;;;;5.15;46.71;97308.72;4903818;28;20204;-79
2023/04/06 05:48:57;;;;;;;4.32;2.75;;;;;;;5.11;46.42;97297.22;4909616;28;20299;-78
2023/04/06 05:51:23;;;;;;;5.43;3.05;;;;;;;5.19;46.01;97305.53;4891650;28;20268;-79
2023/04/06 05:53:48;;;;;;;5.28;2.97;;;;;;;5.48;46.35;97302.56;4925840;28;20350;-79
2023/04/06 05:56:14;;;;;;;4.65;2.72;;;;;;;5.67;45.46;97314.56;4909661;28;20327;-78
2023/04/06 05:58:41;;;;;;;4.95;2.67;;;;;;;5.80;45.41;97314.47;4925207;28;20258;-81
2023/04/06 06:01:06;;;;;;;4.57;2.28;;;;;;;5.73;44.62;97311.16;4907932;28;20289;-78
2023/04/06 06:03:32;;;;;;;4.43;2.67;;;;;;;5.77;44.98;97314.09;4921017;28;20426;-79
2023/04/06 06:06:01;;;;;;;4.25;2.63;;;;;;;5.86;44.71;97309.47;4877690;28;20213;-78
2023/04/06 06:08:27;;;;;;;3.60;2.20;;;;;;;5.72;45.04;97304.38;4914840;28;20237;-79
2023/04/06 06:10:53;;;;;;;5.25;2.80;;;;;;;5.83;46.29;97315.84;4920966;28;20162;-79
2023/04/06 06:13:18;;;;;;;3.72;2.58;;;;;;;5.91;46.02;97313.03;4908095;28;20498;-78
2023/04/06 06:15:44;;;;;;;6.80;3.72;;;;;;;6.12;44.92;97311.09;4893216;28;20162;-79
2023/04/06 06:18:10;;;;;;;7.10;3.25;;;;;;;6.36;43.10;97304.31;4916918;28;20481;-79
2023/04/06 06:20:35;;;;;;;6.05;3.40;;;;;;;6.82;42.16;97315.16;4890359;28;20130;-79
2023/04/06 06:23:01;;;;;;;6.47;3.50;;;;;;;7.12;40.22;97308.25;4920478;28;20477;-79
2023/04/06 06:25:26;;;;;;;5.50;3.28;;;;;;;7.42;40.41;97309.25;4904045;28;20360;-79
2023/04/06 06:27:52;;;;;;;4.65;3.17;;;;;;;7.48;40.81;97310.97;4890945;28;20197;-80
2023/04/06 06:30:17;;;;;;;4.93;3.45;;;;;;;7.42;41.58;97304.06;4890924;28;20256;-79
2023/04/06 06:32:43;;;;;;;5.68;3.15;;;;;;;7.37;42.21;97309.94;4908785;28;20243;-80
2023/04/06 06:35:08;;;;;;;4.43;2.95;;;;;;;7.52;41.43;97319.88;4907421;28;20284;-79
2023/04/06 06:37:34;;;;;;;5.07;3.03;;;;;;;7.20;41.68;97309.75;4908060;28;20173;-80
2023/04/06 06:39:59;;;;;;;5.07;2.55;;;;;;;7.25;41.06;97307.28;4893004;28;20345;-80
2023/04/06 06:42:25;;;;;;;3.35;2.78;;;;;;;7.28;41.29;97317.22;4924266;28;20477;-80
2023/04/06 06:44:51;;;;;;;5.07;3.17;;;;;;;7.56;40.30;97315.84;4909162;28;20290;-80
2023/04/06 06:47:16;;;;;;;5.43;2.97;;;;;;;7.64;40.77;97320.72;4921860;28;20409;-80
2023/04/06 06:49:42;;;;;;;5.05;3.13;;;;;;;7.87;40.24;97314.78;4916988;28;20306;-80
2023/04/06 06:52:07;;;;;;;6.45;3.50;;;;;;;8.04;39.81;97307.16;4923096;28;20220;-79
2023/04/06 06:54:33;;;;;;;4.93;3.60;;;;;;;8.37;38.28;97313.56;4917024;28;20269;-79
2023/04/06 06:57:00;;;;;;;5.78;3.25;;;;;;;8.76;37.12;97315.72;4908195;28;20367;-80
2023/04/06 06:59:25;;;;;;;6.97;3.97;;;;;;;8.96;37.80;97310.13;4907830;28;20344;-79
2023/04/06 07:01:50;;;;;;;6.60;3.88;;;;;;;9.28;37.38;97307.88;4921828;28;20095;-80
2023/04/06 07:04:16;;;;;;;5.93;3.55;;;;;;;9.59;37.07;97305.03;4892271;28;20092;-81
2023/04/06 07:06:41;;;;;;;6.75;3.88;;;;;;;9.86;35.88;97303.41;4891354;28;20152;-80
2023/04/06 07:09:07;;;;;;;5.78;3.60;;;;;;;9.81;36.35;97305.13;4892577;28;20194;-79
2023/04/06 07:11:32;;;;;;;7.93;4.10;;;;;;;10.12;35.43;97312.38;4896215;28;20242;-80
2023/04/06 07:13:58;;;;;;;5.75;3.85;;;;;;;10.38;35.22;97304.97;4889012;28;20412;-80
2023/04/06 07:16:23;;;;;;;6.45;4.13;;;;;;;10.26;35.26;97299.03;4906259;28;20193;-80
2023/04/06 07:18:49;;;;;;;6.65;3.88;;;;;;;10.46;34.19;97298.56;4907499;28;20305;-80
2023/04/06 07:21:15;;;;;;;4.65;3.13;;;;;;;10.71;33.84;97310.34;4908522;28;20382;-80
2023/04/06 07:23:42;;;;;;;4.90;3.42;;;;;;;10.89;33.51;97311.88;4909038;28;20206;-80
2023/04/06 07:26:07;;;;;;;5.05;3.42;;;;;;;11.05;33.19;97313.59;4925851;28;20221;-80
2023/04/06 07:28:32;;;;;;;4.88;3.42;;;;;;;11.29;32.66;97318.56;4903785;28;20245;-80
2023/04/06 07:30:58;;;;;;;3.83;2.95;;;;;;;11.38;32.79;97312.66;4920897;28;20233;-80
2023/04/06 07:33:23;;;;;;;8.40;4.57;;;;;;;11.67;32.28;97316.81;4922368;28;20315;-81
2023/04/06 07:35:49;;;;;;;5.45;3.80;;;;;;;12.05;32.29;97313.28;4905142;28;20381;-80
2023/04/06 07:38:14;;;;;;;4.47;3.35;;;;;;;12.29;31.48;97310.31;4874271;28;20466;-79
2023/04/06 07:40:40;;;;;;;6.20;4.22;;;;;;;12.49;30.58;97299.16;4913965;28;20266;-80
2023/04/06 07:43:05;;;;;;;6.15;3.80;;;;;;;12.77;30.75;97316.31;4910344;28;20429;-80
2023/04/06 07:45:31;;;;;;;5.20;3.60;;;;;;;12.90;30.71;97309.81;4907496;28;20130;-81
2023/04/06 07:47:57;;;;;;;5.50;3.47;;;;;;;13.15;30.80;97314.34;4890780;28;20675;-81
2023/04/06 07:50:22;;;;;;;5.32;3.85;;;;;;;13.16;30.38;97313.31;4908456;28;20205;-79
2023/04/06 07:52:48;;;;;;;5.35;3.67;;;;;;;13.62;29.57;97316.06;4872057;28;20501;-81
2023/04/06 07:55:13;;;;;;;5.35;4.00;;;;;;;13.49;30.21;97313.94;4922262;28;20225;-80
2023/04/06 07:57:39;;;;;;;7.95;4.15;;;;;;;13.53;28.93;97306.34;4907914;28;20178;-81
2023/04/06 08:00:05;;;;;;;4.72;3.50;;;;;;;13.79;29.97;97318.41;4924342;28;20285;-80
2023/04/06 08:02:34;;;;;;;5.22;3.95;;;;;;;13.98;28.63;97310.03;4891266;28;20443;-80
2023/04/06 08:04:59;;;;;;;4.93;3.53;;;;;;;14.48;28.90;97305.78;4907231;28;20272;-79
2023/04/06 08:07:25;;;;;;;5.65;3.63;;;;;;;14.65;29.04;97312.56;4892331;28;20409;-81
2023/04/06 08:09:51;;;;;;;4.93;3.55;;;;;;;14.81;28.50;97313.31;4907395;28;20272;-81
2023/04/06 08:12:17;;;;;;;4.90;3.80;;;;;;;14.88;28.32;97313.81;4892765;28;20291;-81
2023/04/06 08:14:42;;;;;;;5.22;3.40;;;;;;;14.71;28.11;97304.44;4924565;28;20258;-80
2023/04/06 08:17:08;;;;;;;6.28;3.58;;;;;;;15.21;27.92;97316.81;4908099;28;20266;-80
2023/04/06 08:19:33;;;;;;;7.78;4.13;;;;;;;15.22;27.40;97311.28;4907314;28;20424;-80
2023/04/06 08:22:02;;;;;;;6.25;4.28;;;;;;;15.47;27.91;97320.06;4915867;28;20227;-81
2023/04/06 08:24:27;;;;;;;6.85;4.38;;;;;;;15.19;28.96;97318.91;4909719;28;20352;-80
2023/04/06 08:26:53;;;;;;;6.25;3.63;;;;;;;15.40;28.20;97319.59;4912766;28;20042;-79
2023/04/06 08:29:18;;;;;;;9.05;4.97;;;;;;;15.44;30.31;97331.09;4911334;28;20225;-80
2023/04/06 08:31:43;;;;;;;8.30;4.32;;;;;;;15.40;27.73;97328.22;4910032;28;20163;-78
2023/04/06 08:34:10;;;;;;;7.03;4.28;;;;;;;15.34;28.65;97318.84;4910172;28;20166;-81
2023/04/06 08:36:35;;;;;;;6.03;4.03;;;;;;;15.64;28.95;97324.94;4926515;28;20272;-82
2023/04/06 08:39:01;;;;;;;5.78;4.05;;;;;;;15.89;27.89;97321.38;4880301;28;20189;-81
2023/04/06 08:41:27;;;;;;;6.97;4.60;;;;;;;16.44;27.57;97318.53;4909314;28;20449;-79
2023/04/06 08:43:57;;;;;;;8.10;4.95;;;;;;;16.06;27.32;97316.50;4910321;28;20192;-80
2023/04/06 08:46:28;;;;;;;10.65;5.15;;;;;;;16.25;26.29;97313.19;4925443;28;20396;-80
2023/04/06 08:48:54;;;;;;;7.60;4.82;;;;;;;16.42;27.73;97315.41;4912094;28;20364;-81
2023/04/06 08:51:23;;;;;;;7.32;4.53;;;;;;;16.78;26.60;97317.66;4911170;28;20225;-80
2023/04/06 08:53:49;;;;;;;7.35;4.72;;;;;;;16.84;27.56;97324.44;4911594;28;20178;-80
2023/04/06 08:56:15;;;;;;;8.10;4.47;;;;;;;16.92;28.85;97315.16;4910472;28;20326;-81
2023/04/06 08:58:41;;;;;;;7.75;4.45;;;;;;;17.08;26.68;97321.00;4914293;28;20190;-81
2023/04/06 09:01:09;;;;;;;7.65;4.38;;;;;;;16.90;26.98;97312.03;4907871;28;20604;-80
2023/04/06 09:03:41;;;;;;;5.93;4.47;;;;;;;16.86;27.93;97317.03;4918610;28;20281;-81
2023/04/06 09:06:08;;;;;;;7.18;4.63;;;;;;;16.82;27.02;97321.28;4895229;28;20290;-80
2023/04/06 09:08:34;;;;;;;6.65;4.72;;;;;;;16.82;25.58;97316.00;4877121;28;20272;-79
2023/04/06 09:11:02;;;;;;;6.68;4.72;;;;;;;17.04;26.08;97318.91;4910298;28;20177;-80
2023/04/06 09:13:27;;;;;;;7.15;4.80;;;;;;;17.13;25.30;97313.03;4924626;28;20133;-80
2023/04/06 09:16:04;;;;;;;7.43;5.15;;;;;;;17.04;26.23;97320.78;4909341;28;20209;-79
2023/04/06 09:18:33;;;;;;;7.38;4.72;;;;;;;16.97;27.02;97321.13;4926092;28;20190;-79
2023/04/06 09:21:04;;;;;;;7.03;4.93;;;;;;;17.34;25.79;97319.59;4892407;28;20351;-79
2023/04/06 09:23:29;;;;;;;7.22;5.47;;;;;;;17.36;26.02;97322.72;4894218;28;20205;-80
2023/04/06 09:26:14;;;;;;;7.68;4.78;;;;;;;17.76;26.34;97317.94;4910404;28;20201;-80
2023/04/06 09:28:54;;;;;;;8.27;4.63;;;;;;;17.29;26.49;97309.16;4908939;28;20321;-80
2023/04/06 09:31:24;;;;;;;6.63;4.90;;;;;;;17.45;26.30;97322.09;4892589;28;20180;-80
2023/04/06 09:33:49;;;;;;;5.55;4.32;;;;;;;17.28;25.81;97320.72;4907791;28;20188;-80
2023/04/06 09:36:15;;;;;;;7.90;5.10;;;;;;;17.03;25.93;97309.47;4925267;28;20193;-78
2023/04/06 09:38:56;;;;;;;7.68;5.30;;;;;;;17.31;26.62;97319.38;4909724;28;20341;-79
2023/04/06 09:41:30;;;;;;;8.80;5.13;;;;;;;17.78;24.58;97310.50;4909125;28;20305;-81
2023/04/06 09:44:06;;;;;;;7.35;4.47;;;;;;;17.84;26.34;97310.44;4925854;28;20201;-79
2023/04/06 09:46:36;;;;;;;7.75;5.03;;;;;;;17.74;25.87;97314.03;4907824;28;20454;-81
2023/04/06 09:49:02;;;;;;;8.18;5.43;;;;;;;17.93;25.83;97306.13;4920036;28;20178;-78
2023/04/06 09:51:31;;;;;;;9.15;4.72;;;;;;;17.74;26.17;97309.53;4890004;28;20401;-79
2023/04/06 09:54:01;;;;;;;6.93;5.07;;;;;;;18.17;24.84;97307.84;4909169;28;20276;-80
2023/04/06 09:56:28;;;;;;;7.15;4.75;;;;;;;18.42;25.39;97301.31;4870315;28;20202;-79
2023/04/06 09:58:58;;;;;;;6.38;4.70;;;;;;;18.72;24.95;97299.97;4901324;28;20278;-79
2023/04/06 10:01:27;;;;;;;7.63;5.40;;;;;;;18.57;24.50;97297.63;4924524;28;20167;-79
2023/04/06 10:03:59;;;;;;;7.80;4.80;;;;;;;18.69;25.02;97292.63;4907151;28;20146;-79
2023/04/06 10:06:27;;;;;;;8.02;5.10;;;;;;;18.77;24.11;97291.94;4908145;28;20202;-79
2023/04/06 10:08:55;;;;;;;7.65;5.10;;;;;;;18.92;24.74;97298.81;4908453;28;20621;-79
2023/04/06 10:11:21;;;;;;;7.97;5.00;;;;;;;18.94;24.98;97293.25;4892463;28;20442;-80
2023/04/06 10:13:48;;;;;;;7.00;4.80;;;;;;;19.16;24.14;97295.94;4909330;28;20523;-80
2023/04/06 10:16:14;;;;;;;7.35;4.95;;;;;;;19.19;22.73;97290.06;4908011;28;20339;-77
2023/04/06 10:18:42;;;;;;;7.22;5.10;;;;;;;18.30;23.39;97288.59;4908445;28;20352;-79
2023/04/06 10:21:21;;;;;;;7.88;5.53;;;;;;;18.50;24.35;97290.09;4920909;28;20148;-78
2023/04/06 10:24:01;;;;;;;7.05;4.63;;;;;;;18.20;26.27;97288.78;4902716;28;20197;-78
2023/04/06 10:26:27;;;;;;;7.53;5.03;;;;;;;18.01;25.51;97284.38;4901282;28;20324;-80
2023/04/06 10:28:52;;;;;;;7.20;5.03;;;;;;;17.89;26.06;97294.56;4906664;28;20236;-79
2023/04/06 10:31:28;;;;;;;6.43;4.95;;;;;;;17.89;25.79;97287.47;4875702;28;20345;-79
2023/04/06 10:33:59;;;;;;;6.70;4.43;;;;;;;18.03;25.82;97284.88;4891988;28;20209;-81
2023/04/06 10:36:26;;;;;;;6.72;4.63;;;;;;;18.19;26.23;97289.88;4891361;28;20281;-81
2023/04/06 10:39:00;;;;;;;5.90;4.60;;;;;;;18.44;24.55;97291.25;4907677;28;20364;-81
2023/04/06 10:41:35;;;;;;;7.38;4.53;;;;;;;18.33;24.87;97291.47;4907529;28;20206;-80
2023/04/06 10:44:01;;;;;;;7.75;5.25;;;;;;;17.92;25.22;97296.63;4908285;28;20594;-80
2023/04/06 10:46:28;;;;;;;8.25;4.82;;;;;;;18.17;24.23;97305.19;4883857;28;20320;-79
2023/04/06 10:48:54;;;;;;;6.13;4.70;;;;;;;18.06;25.70;97283.50;4922162;28;20207;-80
2023/04/06 10:51:26;;;;;;;7.15;5.05;;;;;;;18.11;25.16;97300.03;4903721;28;20216;-78
2023/04/06 10:53:53;;;;;;;7.47;4.65;;;;;;;17.60;26.46;97295.53;4891027;28;20194;-80
2023/04/06 10:56:22;;;;;;;5.82;4.70;;;;;;;17.58;25.22;97289.75;4908131;28;20393;-79
2023/04/06 10:58:49;;;;;;;5.10;4.03;;;;;;;17.67;25.88;97293.31;4892364;28;20197;-80
2023/04/06 11:01:22;;;;;;;6.57;4.80;;;;;;;17.94;26.23;97294.50;4891531;28;20187;-80
2023/04/06 11:03:53;;;;;;;7.85;5.18;;;;;;;17.72;25.15;97298.50;4922734;28;20251;-80
2023/04/06 11:06:27;;;;;;;6.20;4.28;;;;;;;17.92;25.19;97289.53;4906524;28;20271;-79
2023/04/06 11:08:53;;;;;;;5.80;4.38;;;;;;;17.76;25.93;97296.09;4900410;28;20210;-81
2023/04/06 11:11:20;;;;;;;5.97;4.38;;;;;;;17.57;24.54;97294.25;4890428;28;20247;-79
2023/04/06 11:13:50;;;;;;;6.43;4.25;;;;;;;17.75;24.55;97289.25;4918633;28;20192;-79
2023/04/06 11:16:19;;;;;;;5.80;4.63;;;;;;;17.56;25.22;97297.16;4909765;28;20337;-81
2023/04/06 11:18:52;;;;;;;6.32;4.38;;;;;;;17.54;22.79;97283.50;4907897;28;20210;-79
2023/04/06 11:21:32;;;;;;;7.25;5.20;;;;;;;17.36;23.52;97283.25;4907274;28;20205;-79
2023/04/06 11:24:13;;;;;;;6.95;4.35;;;;;;;17.39;23.61;97282.69;4906682;28;20377;-78
2023/04/06 11:26:43;;;;;;;6.80;4.60;;;;;;;17.02;24.07;97278.97;4916998;28;20201;-78
2023/04/06 11:29:09;;;;;;;5.93;4.35;;;;;;;17.13;23.17;97276.19;4907745;28;20265;-77
2023/04/06 11:31:50;;;;;;;6.88;5.00;;;;;;;17.11;23.93;97265.97;4907205;28;20350;-79
2023/04/06 11:34:17;;;;;;;6.80;5.22;;;;;;;17.32;24.18;97263.81;4906675;28;20209;-79
2023/04/06 11:36:44;;;;;;;5.60;3.95;;;;;;;17.50;23.39;97261.47;4922808;28;20468;-78